Montgomery Regional (Dannelly Field) Airport
KMGM : now visible

Airfield :











YOU CAN JOIN US ON...

 
LOGIN :

Register | Disclaimer

   EN    FR    IT 

 









Legend :    VFR   Marginal VFR   IFR   Intensive IFR   Very Intensive IFR
Visi :
Ceiling :
>= 8 km
>= 3000ft
5 to 8 km
1000 to 3000 ft
1500m to 5 km
500 to 1000 ft
800 to 1500m
200 to 500 ft
< 800m
< 200 ft
Symbols :   Thunderstorms  Fog  Heavy snow  Heavy precipitations  Wind > 20 kt






- Airport Elevation : 221 ft
- IATA code : MGM


KMGM - Montgomery Regional (Dannelly Field)

CURRENT METAR :
  • 291253Z 09005KT 10SM CLR 07/03 A2998 RMK AO2 SLP150 T00720033

EXPIRED METARs :
  • 291153Z 09008KT 10SM CLR 07/03 A2997 RMK AO2 SLP150 T00720028 10078 20050 56011
  • 291053Z 08004KT 10SM BKN095 OVC120 08/03 A2999 RMK AO2 SLP155 T00780033

TAF KMGM
Valid from the 29 at 12:00 until the 30 at 12:00 UTC


291120Z 2912/3012 07005KT P6SM BKN120
FM291500 09006KT P6SM -RA BKN100
FM292100 08005KT 6SM -SHRA BKN035
PROB30 2921/2924 3SM SHRA OVC025
FM300000 07005KT P6SM BKN050
FM300800 VRB03KT 5SM BR FEW120
FM301100 00000KT 2SM BR BCFG FEW120



MET'MAP, your aeronautical weather chart ! - Copyright ORBIFLY December 2007 - Disclaimer

ORBIFLY MET'MAP TEAM :

Programming & Development : Alexandra Zaïnal
Concept & original design : Baudouin d'Aumeries
Assistance for programming : Marc-Olivier Méhu
Technical & hardware support : Manuel Goepfert

Contact : metmap@orbifly.com




SOURCES & CREDITS :

   NOAA       Earth
Advisory